Time;durP1;ratioP1;P1;durP2;ratioP2;P2;SDS_P1;SDS_P2;PMS_P1;PMS_P2;Temp;Humidity;BMP_temperature;BMP_pressure;BME280_temperature;BME280_humidity;BME280_pressure;Samples;Min_cycle;Max_cycle;Signal;HPM_P1;HPM_P2
2023/01/01 00:01:07;;;;;;;152.87;81.67;;;;;;;5.31;92.61;101006.72;5051746;28;20327;-68
2023/01/01 00:03:34;;;;;;;174.17;93.73;;;;;;;5.28;92.98;101006.97;5051289;28;20695;-68
2023/01/01 00:06:05;;;;;;;161.63;89.80;;;;;;;5.29;92.44;100998.13;5051313;28;20657;-68
2023/01/01 00:08:32;;;;;;;161.30;84.63;;;;;;;5.30;92.02;100997.16;5051043;28;20712;-68
2023/01/01 00:11:01;;;;;;;143.90;82.20;;;;;;;5.34;92.07;101005.63;5051837;28;20242;-67
2023/01/01 00:13:29;;;;;;;139.93;79.60;;;;;;;5.31;91.72;101001.44;5051344;28;20205;-69
2023/01/01 00:15:56;;;;;;;143.63;79.87;;;;;;;5.33;91.55;101010.06;5051320;28;20205;-68
2023/01/01 00:18:22;;;;;;;143.13;78.23;;;;;;;5.33;92.25;101010.06;5051849;28;20246;-68
2023/01/01 00:20:49;;;;;;;146.63;81.83;;;;;;;5.34;92.00;101011.75;5051766;28;20205;-68
2023/01/01 00:23:16;;;;;;;156.80;80.13;;;;;;;5.36;92.04;101006.34;5050564;28;20707;-68
2023/01/01 00:25:43;;;;;;;140.03;78.50;;;;;;;5.29;92.10;101013.06;5051064;28;20254;-68
2023/01/01 00:28:10;;;;;;;150.97;81.93;;;;;;;5.34;92.03;101019.66;5051536;28;20199;-68
2023/01/01 00:30:41;;;;;;;130.80;73.73;;;;;;;5.38;91.76;101023.69;5051044;28;20200;-67
2023/01/01 00:33:07;;;;;;;127.33;71.07;;;;;;;5.35;90.77;101018.66;5052420;28;20191;-68
2023/01/01 00:35:34;;;;;;;130.30;72.80;;;;;;;5.29;91.02;101018.34;5051353;28;20197;-68
2023/01/01 00:38:01;;;;;;;130.00;71.63;;;;;;;5.28;91.21;101019.31;5051545;28;20576;-68
2023/01/01 00:40:28;;;;;;;122.30;65.40;;;;;;;5.26;91.54;101024.69;5051216;28;20188;-69
2023/01/01 00:42:54;;;;;;;119.53;68.13;;;;;;;5.26;91.39;101019.44;5050262;28;20216;-69
2023/01/01 00:45:21;;;;;;;115.07;62.03;;;;;;;5.27;91.09;101026.38;5050976;28;20242;-67
2023/01/01 00:47:50;;;;;;;114.83;61.53;;;;;;;5.25;90.98;101027.44;5053459;28;20573;-68
2023/01/01 00:50:17;;;;;;;132.80;70.17;;;;;;;5.26;90.53;101035.25;5054565;28;20193;-67
2023/01/01 00:52:44;;;;;;;126.83;68.53;;;;;;;5.25;90.55;101044.09;5054659;28;20583;-67
2023/01/01 00:55:11;;;;;;;120.67;64.03;;;;;;;5.23;90.71;101043.38;5054927;28;20198;-67
2023/01/01 00:57:37;;;;;;;112.30;60.53;;;;;;;5.21;91.06;101045.31;5054511;28;20200;-67
2023/01/01 01:00:05;;;;;;;105.70;57.53;;;;;;;5.20;90.85;101038.34;5054364;28;20228;-67
2023/01/01 01:02:32;;;;;;;96.53;52.87;;;;;;;5.21;91.25;101047.94;5054557;28;20282;-67
2023/01/01 01:05:02;;;;;;;95.37;51.07;;;;;;;5.18;91.79;101048.19;5054214;28;20222;-67
2023/01/01 01:07:33;;;;;;;98.70;58.57;;;;;;;5.16;91.50;101047.47;5054910;28;20216;-67
2023/01/01 01:10:00;;;;;;;88.27;50.30;;;;;;;5.08;91.47;101039.38;5053738;28;20239;-67
2023/01/01 01:12:27;;;;;;;97.93;52.20;;;;;;;5.07;92.32;101050.03;5054461;28;20262;-67
2023/01/01 01:14:53;;;;;;;91.67;51.10;;;;;;;5.05;92.53;101036.97;5054542;28;20255;-67
2023/01/01 01:17:20;;;;;;;87.57;50.67;;;;;;;5.08;92.93;101030.63;5054018;28;20192;-67
2023/01/01 01:19:47;;;;;;;82.87;47.50;;;;;;;5.09;92.53;101038.41;5053931;28;20196;-67
2023/01/01 01:22:15;;;;;;;81.37;47.57;;;;;;;5.12;92.06;101038.16;5053965;28;20286;-67
2023/01/01 01:24:41;;;;;;;80.13;47.27;;;;;;;5.11;92.24;101031.19;5054559;28;20192;-67
2023/01/01 01:27:08;;;;;;;73.23;44.80;;;;;;;5.08;91.78;101034.09;5054419;28;20242;-67
2023/01/01 01:29:35;;;;;;;74.73;41.00;;;;;;;4.99;91.72;101037.44;5054660;28;20246;-67
2023/01/01 01:32:02;;;;;;;68.50;40.13;;;;;;;4.88;91.34;101028.75;5054195;28;20200;-67
2023/01/01 01:34:28;;;;;;;69.03;39.70;;;;;;;4.76;91.38;101032.34;5053991;28;20254;-67
2023/01/01 01:36:55;;;;;;;67.40;39.93;;;;;;;4.73;91.39;101024.69;5054108;28;20189;-67
2023/01/01 01:39:23;;;;;;;66.93;37.93;;;;;;;4.66;91.84;101019.06;5053920;28;20266;-67
2023/01/01 01:41:50;;;;;;;71.23;39.63;;;;;;;4.49;92.34;101016.09;5054022;28;20650;-67
2023/01/01 01:44:49;;;;;;;65.30;41.23;;;;;;;4.37;92.76;101012.63;5053717;28;20278;-67
2023/01/01 01:47:17;;;;;;;62.70;40.43;;;;;;;4.18;92.80;101012.41;5054245;28;20616;-67
2023/01/01 01:49:45;;;;;;;68.40;39.53;;;;;;;4.15;93.55;101003.91;5053723;28;20443;-67
2023/01/01 01:52:12;;;;;;;70.07;39.67;;;;;;;4.18;94.45;101012.41;5053410;28;20188;-68
2023/01/01 01:54:41;;;;;;;82.77;42.43;;;;;;;4.18;95.09;101004.53;5053363;28;20193;-67
2023/01/01 01:57:11;;;;;;;77.80;41.87;;;;;;;4.20;94.67;100999.97;5052589;28;20439;-67
2023/01/01 01:59:42;;;;;;;73.53;41.70;;;;;;;4.24;93.27;101000.56;5052847;28;20188;-68
2023/01/01 02:02:15;;;;;;;82.80;44.60;;;;;;;4.21;92.55;101001.63;5052112;28;20188;-67
2023/01/01 02:04:42;;;;;;;72.07;43.80;;;;;;;4.25;92.22;101012.78;5053885;28;20500;-68
2023/01/01 02:07:09;;;;;;;78.13;43.80;;;;;;;4.23;92.68;101012.03;5052026;28;20443;-67
2023/01/01 02:09:36;;;;;;;75.90;44.83;;;;;;;4.11;93.35;100991.94;5053447;28;20246;-67
2023/01/01 02:12:04;;;;;;;79.17;44.43;;;;;;;4.25;93.85;101018.84;5051989;28;20196;-67
2023/01/01 02:14:32;;;;;;;80.63;45.93;;;;;;;4.25;94.92;101007.50;5053218;28;20431;-68
2023/01/01 02:17:07;;;;;;;73.63;43.43;;;;;;;4.28;93.38;101013.34;5053079;28;20199;-67
2023/01/01 02:19:45;;;;;;;77.03;43.97;;;;;;;4.32;93.98;101020.06;5052096;28;20488;-67
2023/01/01 02:22:16;;;;;;;77.23;46.23;;;;;;;4.32;92.57;101021.84;5051646;28;20228;-67
2023/01/01 02:25:05;;;;;;;78.87;46.87;;;;;;;4.30;93.46;101011.44;5052599;28;20246;-67
2023/01/01 02:27:38;;;;;;;81.80;46.90;;;;;;;4.34;94.09;101023.38;5052828;28;20184;-67
2023/01/01 02:30:08;;;;;;;78.27;46.03;;;;;;;4.38;93.55;101011.69;5052724;28;20431;-67
2023/01/01 02:32:39;;;;;;;82.17;46.13;;;;;;;4.40;93.27;101016.81;5053517;28;20561;-67
2023/01/01 02:38:00;;;;;;;80.57;45.03;;;;;;;4.41;91.67;101018.53;5052686;28;20180;-67
2023/01/01 02:40:28;;;;;;;82.20;46.53;;;;;;;4.38;91.61;101018.75;5052495;28;20439;-67
2023/01/01 02:42:56;;;;;;;78.30;44.10;;;;;;;4.38;91.26;101030.09;5052799;28;20278;-68
2023/01/01 02:45:24;;;;;;;72.27;44.33;;;;;;;4.39;91.85;101030.94;5052101;28;20242;-68
2023/01/01 02:47:51;;;;;;;69.03;43.30;;;;;;;4.41;92.49;101024.59;5051879;28;20193;-67
2023/01/01 02:50:21;;;;;;;76.60;45.70;;;;;;;4.44;91.90;101023.53;5052384;28;20659;-67
2023/01/01 02:53:01;;;;;;;77.53;45.10;;;;;;;4.40;91.41;101012.41;5052316;28;20204;-68
2023/01/01 02:55:37;;;;;;;80.43;44.83;;;;;;;4.34;91.54;101012.88;5052359;28;20614;-67
2023/01/01 03:00:58;;;;;;;78.03;45.37;;;;;;;4.38;91.16;101021.38;5052075;28;20423;-67
2023/01/01 03:03:29;;;;;;;89.90;45.40;;;;;;;4.40;90.81;101019.44;5053326;28;20629;-67
2023/01/01 03:06:22;;;;;;;89.50;49.30;;;;;;;4.38;90.50;101027.47;5052457;28;20435;-69
2023/01/01 03:08:56;;;;;;;89.20;50.40;;;;;;;4.36;90.13;101016.22;5052308;28;20435;-65
2023/01/01 03:11:26;;;;;;;97.30;47.23;;;;;;;4.33;90.09;101011.19;5052261;28;20258;-67
2023/01/01 03:14:04;;;;;;;78.03;47.50;;;;;;;4.34;89.83;101007.59;5052322;28;20209;-67
2023/01/01 03:16:39;;;;;;;84.97;46.83;;;;;;;4.31;90.21;101018.38;5052344;28;20246;-66
2023/01/01 03:19:12;;;;;;;75.00;46.10;;;;;;;4.25;91.53;101008.34;5052521;28;20759;-67
2023/01/01 03:21:43;;;;;;;82.27;44.37;;;;;;;4.14;91.23;101016.22;5051644;28;20562;-67
2023/01/01 03:24:14;;;;;;;76.57;44.67;;;;;;;4.10;91.13;101020.06;5050990;28;20208;-67
2023/01/01 03:26:43;;;;;;;79.17;44.03;;;;;;;4.06;91.50;101018.63;5051860;28;20420;-67
2023/01/01 03:29:12;;;;;;;74.57;44.17;;;;;;;4.08;91.63;101016.69;5051440;28;20950;-67
2023/01/01 03:31:44;;;;;;;78.40;47.20;;;;;;;4.06;91.27;101010.72;5052033;28;20250;-68
2023/01/01 03:34:16;;;;;;;77.43;45.43;;;;;;;4.06;91.63;101015.97;5051711;28;20280;-68
2023/01/01 03:36:47;;;;;;;85.13;47.67;;;;;;;4.07;91.05;101009.75;5052052;28;20197;-68
2023/01/01 03:39:18;;;;;;;83.53;45.27;;;;;;;4.06;91.08;101018.63;5052120;28;20438;-68
2023/01/01 03:41:52;;;;;;;80.20;45.43;;;;;;;4.04;90.96;101025.75;5051683;28;20189;-68
2023/01/01 03:44:23;;;;;;;83.73;45.27;;;;;;;4.05;91.58;101024.81;5051706;28;20234;-68
2023/01/01 03:46:51;;;;;;;74.67;43.47;;;;;;;4.06;91.42;101023.88;5051624;28;20427;-68
2023/01/01 03:49:19;;;;;;;81.47;44.03;;;;;;;4.09;91.26;101026.25;5051990;28;20276;-68
2023/01/01 03:52:00;;;;;;;72.57;44.63;;;;;;;4.00;91.37;101029.59;5052114;28;20438;-68
2023/01/01 03:54:36;;;;;;;81.47;45.70;;;;;;;4.02;91.61;101034.72;5051983;28;20477;-68
2023/01/01 03:57:11;;;;;;;82.70;44.87;;;;;;;4.02;91.30;101027.69;5051784;28;20234;-68
2023/01/01 03:59:45;;;;;;;82.60;44.17;;;;;;;4.03;90.32;101033.75;5051623;28;20188;-68
2023/01/01 04:02:18;;;;;;;73.90;44.23;;;;;;;3.97;91.38;101029.81;5051976;28;20193;-68
2023/01/01 04:04:46;;;;;;;74.93;44.80;;;;;;;4.01;91.42;101039.13;5052215;28;20326;-67
2023/01/01 04:07:13;;;;;;;71.43;43.87;;;;;;;4.04;91.78;101043.34;5051708;28;20439;-66
2023/01/01 04:09:45;;;;;;;73.03;44.33;;;;;;;4.06;90.96;101029.13;5051420;28;20942;-68
2023/01/01 04:12:12;;;;;;;85.47;48.23;;;;;;;4.08;91.75;101021.09;5051656;28;20231;-66
2023/01/01 04:14:40;;;;;;;87.40;48.07;;;;;;;4.10;90.97;101025.31;5051368;28;20204;-67
2023/01/01 04:17:09;;;;;;;82.07;47.40;;;;;;;4.07;92.57;101030.78;5051534;28;20246;-67
2023/01/01 04:19:37;;;;;;;81.30;48.17;;;;;;;4.13;92.84;101032.13;5051699;28;20250;-67
2023/01/01 04:22:05;;;;;;;84.00;48.00;;;;;;;4.17;92.21;101026.50;5052336;28;20247;-67
2023/01/01 04:24:31;;;;;;;78.93;46.60;;;;;;;4.19;91.31;101029.84;5055359;28;20588;-67
2023/01/01 04:26:58;;;;;;;73.70;43.63;;;;;;;4.20;91.25;101036.78;5055063;28;20196;-67
2023/01/01 04:29:25;;;;;;;75.93;43.67;;;;;;;4.23;91.88;101036.56;5054977;28;20702;-68
2023/01/01 04:31:51;;;;;;;70.97;43.50;;;;;;;4.22;91.67;101034.88;5055295;28;20435;-68
2023/01/01 04:34:18;;;;;;;81.03;45.97;;;;;;;4.19;92.45;101037.75;5054965;28;20507;-68
2023/01/01 04:36:46;;;;;;;77.40;43.93;;;;;;;4.16;92.17;101035.34;5055066;28;20435;-68
2023/01/01 04:39:13;;;;;;;72.20;44.30;;;;;;;4.12;93.04;101033.91;5053997;28;20250;-68
2023/01/01 04:41:40;;;;;;;72.67;45.40;;;;;;;4.19;92.13;101036.91;5055066;28;20196;-68
2023/01/01 04:44:06;;;;;;;81.83;46.20;;;;;;;4.19;91.66;101029.84;5055083;28;20224;-68
2023/01/01 04:46:33;;;;;;;75.33;43.27;;;;;;;4.23;91.30;101030.44;5055052;28;20254;-68
2023/01/01 04:49:00;;;;;;;73.17;43.97;;;;;;;4.23;90.76;101031.28;5054952;28;20438;-68
2023/01/01 04:51:26;;;;;;;76.97;44.23;;;;;;;4.21;90.33;101027.94;5054635;28;20435;-68
2023/01/01 04:53:54;;;;;;;81.17;45.00;;;;;;;4.11;90.17;101029.59;5054877;28;20446;-67
2023/01/01 04:56:22;;;;;;;74.30;45.10;;;;;;;4.04;90.71;101024.94;5054503;28;20197;-67
2023/01/01 04:58:49;;;;;;;75.43;44.57;;;;;;;4.06;90.83;101025.66;5055128;28;20258;-67
2023/01/01 05:01:18;;;;;;;82.63;47.40;;;;;;;4.05;90.22;101037.94;5054447;28;20568;-67
2023/01/01 05:03:45;;;;;;;71.73;45.23;;;;;;;3.95;89.47;101029.09;5055499;28;20524;-66
2023/01/01 05:06:13;;;;;;;81.03;46.83;;;;;;;3.99;89.67;101033.16;5054371;28;20656;-66
2023/01/01 05:08:41;;;;;;;78.37;45.90;;;;;;;3.98;90.69;101036.75;5055385;28;20435;-67
2023/01/01 05:11:12;;;;;;;77.87;44.87;;;;;;;3.97;90.16;101042.94;5054615;28;20443;-67
2023/01/01 05:13:40;;;;;;;76.60;44.33;;;;;;;3.96;90.03;101048.34;5054520;28;20431;-67
2023/01/01 05:16:09;;;;;;;70.07;43.57;;;;;;;3.96;90.75;101051.78;5054230;28;20885;-67
2023/01/01 05:18:36;;;;;;;73.47;44.43;;;;;;;3.92;90.54;101055.59;5054070;28;20466;-67
2023/01/01 05:21:04;;;;;;;80.67;46.33;;;;;;;3.64;90.83;101040.22;5054471;28;20560;-67
2023/01/01 05:23:32;;;;;;;81.60;47.37;;;;;;;3.72;91.52;101058.06;5054266;28;20536;-67
2023/01/01 05:25:59;;;;;;;73.27;44.37;;;;;;;3.64;91.06;101057.81;5054356;28;20544;-67
2023/01/01 05:28:27;;;;;;;78.43;43.70;;;;;;;3.40;92.20;101063.09;5054263;28;20435;-67
2023/01/01 05:30:54;;;;;;;83.63;47.23;;;;;;;3.38;92.41;101066.75;5053864;28;20866;-67
2023/01/01 05:33:20;;;;;;;77.13;45.60;;;;;;;3.37;92.99;101060.69;5053266;28;21011;-67
2023/01/01 05:35:53;;;;;;;78.27;45.70;;;;;;;3.34;92.92;101070.53;5054092;28;20532;-67
2023/01/01 05:38:20;;;;;;;78.30;44.53;;;;;;;3.24;93.21;101046.78;5054101;28;20457;-67
2023/01/01 05:40:47;;;;;;;82.13;44.87;;;;;;;3.38;93.61;101072.84;5054010;28;20526;-67
2023/01/01 05:43:13;;;;;;;75.97;44.17;;;;;;;3.36;92.87;101068.66;5053509;28;20946;-67
2023/01/01 05:45:42;;;;;;;70.23;44.37;;;;;;;3.36;92.24;101076.53;5053396;28;20520;-68
2023/01/01 05:48:09;;;;;;;86.33;46.60;;;;;;;3.37;93.19;101075.59;5052907;28;20262;-68
2023/01/01 05:50:36;;;;;;;81.13;45.47;;;;;;;3.40;93.57;101075.38;5052153;28;20942;-68
2023/01/01 05:53:03;;;;;;;86.63;46.30;;;;;;;3.44;93.17;101079.44;5053619;28;20439;-67
2023/01/01 05:55:30;;;;;;;83.70;46.87;;;;;;;3.50;92.91;101077.22;5054077;28;20508;-67
2023/01/01 05:57:56;;;;;;;77.60;45.40;;;;;;;3.53;92.92;101077.00;5053557;28;20509;-67
2023/01/01 06:00:24;;;;;;;87.53;48.23;;;;;;;3.56;92.62;101079.38;5053378;28;20443;-68
2023/01/01 06:02:53;;;;;;;76.97;46.17;;;;;;;3.46;91.91;101074.91;5053529;28;20439;-68
2023/01/01 06:05:20;;;;;;;83.10;47.23;;;;;;;3.49;91.89;101079.94;5053853;28;20478;-68
2023/01/01 06:07:46;;;;;;;83.07;45.90;;;;;;;3.49;92.50;101079.94;5053605;28;20447;-68
2023/01/01 06:10:13;;;;;;;75.87;45.67;;;;;;;3.44;92.76;101072.38;5053170;28;20470;-68
2023/01/01 06:12:40;;;;;;;75.83;45.00;;;;;;;3.44;92.55;101075.00;5053363;28;20442;-68
2023/01/01 06:15:08;;;;;;;75.90;43.57;;;;;;;3.33;92.95;101082.84;5053443;28;20504;-68
2023/01/01 06:17:35;;;;;;;72.93;43.20;;;;;;;3.31;93.27;101076.88;5053278;28;20493;-68
2023/01/01 06:20:03;;;;;;;72.97;44.43;;;;;;;3.43;93.46;101070.72;5053295;28;20438;-68
2023/01/01 06:22:30;;;;;;;79.63;44.10;;;;;;;3.52;93.35;101075.28;5052986;28;20479;-68
2023/01/01 06:24:56;;;;;;;78.40;43.83;;;;;;;3.64;93.19;101070.94;5053175;28;20572;-68
2023/01/01 06:27:23;;;;;;;77.20;45.57;;;;;;;3.77;92.82;101063.81;5053342;28;20504;-68
2023/01/01 06:29:50;;;;;;;86.87;47.20;;;;;;;3.94;92.90;101061.59;5053173;28;20504;-68
2023/01/01 06:32:16;;;;;;;84.73;47.87;;;;;;;4.13;92.63;101061.03;5053569;28;20439;-68
2023/01/01 06:34:43;;;;;;;77.67;46.90;;;;;;;4.30;91.28;101061.41;5053032;28;20451;-68
2023/01/01 06:37:11;;;;;;;81.87;46.40;;;;;;;4.49;90.69;101064.31;5052658;28;20473;-68
2023/01/01 06:39:38;;;;;;;78.93;46.23;;;;;;;4.73;90.89;101067.66;5052886;28;20435;-68
2023/01/01 06:42:05;;;;;;;81.53;46.63;;;;;;;4.93;89.08;101080.09;5053024;28;20189;-69
2023/01/01 06:44:32;;;;;;;88.87;52.47;;;;;;;5.07;89.27;101077.19;5051943;28;20216;-68
2023/01/01 06:46:58;;;;;;;92.10;50.23;;;;;;;5.34;89.25;101079.38;5052521;28;20188;-68
2023/01/01 06:49:25;;;;;;;86.37;48.87;;;;;;;5.61;87.43;101082.44;5052273;28;20196;-69
2023/01/01 06:51:52;;;;;;;84.00;49.60;;;;;;;5.81;85.90;101086.09;5052588;28;20196;-68
2023/01/01 06:54:20;;;;;;;77.27;44.93;;;;;;;6.07;86.99;101090.88;5052280;28;20198;-69
2023/01/01 06:56:46;;;;;;;79.97;46.63;;;;;;;6.40;86.01;101082.72;5052679;28;20196;-69
2023/01/01 06:59:13;;;;;;;80.30;50.00;;;;;;;6.75;83.00;101092.91;5052246;28;20330;-68
2023/01/01 07:01:40;;;;;;;78.27;47.70;;;;;;;7.04;82.32;101099.97;5052273;28;20224;-68
2023/01/01 07:04:10;;;;;;;83.67;49.73;;;;;;;7.34;81.78;101104.34;5052048;28;20664;-68
2023/01/01 07:06:37;;;;;;;78.83;48.47;;;;;;;7.63;80.12;101107.91;5052686;28;20185;-69
2023/01/01 07:09:04;;;;;;;70.67;47.70;;;;;;;7.90;79.40;101108.88;5052345;28;20249;-69
2023/01/01 07:11:33;;;;;;;83.33;51.17;;;;;;;8.19;77.77;101106.19;5052717;28;20255;-69
2023/01/01 07:14:00;;;;;;;102.87;58.13;;;;;;;8.46;76.81;101109.78;5052271;28;20268;-68
2023/01/01 07:16:27;;;;;;;88.47;53.20;;;;;;;8.75;76.30;101109.72;5052671;28;20255;-69
2023/01/01 07:18:53;;;;;;;75.67;47.67;;;;;;;8.97;75.30;101110.19;5052467;28;20274;-69
2023/01/01 07:21:28;;;;;;;78.07;48.37;;;;;;;9.27;74.84;101127.63;5052296;28;20200;-69
2023/01/01 07:23:56;;;;;;;73.03;45.93;;;;;;;9.59;74.49;101125.31;5052691;28;20293;-69
2023/01/01 07:26:23;;;;;;;73.93;46.87;;;;;;;9.80;72.04;101128.53;5052186;28;20197;-68
2023/01/01 07:28:51;;;;;;;78.00;47.23;;;;;;;9.97;71.41;101128.53;5052579;28;20254;-69
2023/01/01 07:31:18;;;;;;;61.03;38.17;;;;;;;10.02;70.28;101130.72;5052039;28;20254;-69
2023/01/01 07:33:45;;;;;;;56.30;37.00;;;;;;;10.26;71.69;101123.00;5051773;28;20192;-70
2023/01/01 07:36:12;;;;;;;56.30;37.00;;;;;;;10.47;71.00;101115.53;5051818;28;20243;-68
2023/01/01 07:38:39;;;;;;;53.30;37.27;;;;;;;10.77;70.30;101123.84;5052174;28;20223;-69
2023/01/01 07:41:06;;;;;;;49.07;32.73;;;;;;;11.08;69.40;101129.50;5052811;28;20196;-72
2023/01/01 07:43:33;;;;;;;41.80;28.93;;;;;;;11.13;68.18;101127.19;5051920;28;20189;-72
2023/01/01 07:46:01;;;;;;;34.83;25.57;;;;;;;11.41;67.29;101128.63;5051586;28;20220;-72
2023/01/01 07:48:28;;;;;;;33.80;25.00;;;;;;;11.75;66.91;101137.41;5051923;28;20196;-73
2023/01/01 07:50:55;;;;;;;34.90;24.70;;;;;;;12.03;66.44;101138.78;5051979;28;20197;-72
2023/01/01 07:53:22;;;;;;;40.87;26.63;;;;;;;12.14;64.05;101143.78;5051767;28;20198;-72
2023/01/01 07:55:49;;;;;;;35.87;26.20;;;;;;;12.36;66.14;101143.09;5052590;28;20201;-67
2023/01/01 07:58:15;;;;;;;39.00;26.10;;;;;;;12.48;65.37;101151.59;5055637;28;20194;-69
2023/01/01 08:00:46;;;;;;;38.17;26.40;;;;;;;12.57;63.86;101156.75;5055582;28;20673;-68
2023/01/01 08:03:14;;;;;;;33.97;24.90;;;;;;;12.65;62.86;101154.06;5056155;28;20273;-69
2023/01/01 08:05:41;;;;;;;34.93;24.77;;;;;;;12.79;63.49;101155.22;5055310;28;20225;-69
2023/01/01 08:08:09;;;;;;;37.87;24.17;;;;;;;13.00;62.83;101152.88;5055395;28;20206;-69
2023/01/01 08:10:35;;;;;;;27.20;20.97;;;;;;;13.24;62.29;101166.94;5055403;28;20194;-69
2023/01/01 08:13:04;;;;;;;31.23;21.37;;;;;;;13.42;60.48;101164.03;5056007;28;20196;-69
2023/01/01 08:15:31;;;;;;;22.07;18.80;;;;;;;13.50;61.21;101154.19;5055475;28;20205;-69
2023/01/01 08:17:58;;;;;;;25.30;18.97;;;;;;;13.76;60.29;101178.72;5055823;28;20195;-69
2023/01/01 08:20:27;;;;;;;23.90;18.97;;;;;;;13.93;59.51;101174.94;5055492;28;20245;-68
2023/01/01 08:22:54;;;;;;;24.13;18.67;;;;;;;14.02;59.60;101165.91;5055657;28;20294;-68
2023/01/01 08:25:21;;;;;;;24.33;19.33;;;;;;;14.09;58.71;101174.03;5054992;28;20224;-68
2023/01/01 08:27:47;;;;;;;24.60;19.87;;;;;;;14.20;59.39;101171.78;5055437;28;20603;-69
2023/01/01 08:30:16;;;;;;;24.70;18.50;;;;;;;14.19;58.21;101172.78;5054827;28;20659;-67
2023/01/01 08:32:43;;;;;;;24.13;18.63;;;;;;;14.04;58.55;101174.56;5055329;28;20242;-67
2023/01/01 08:35:10;;;;;;;21.63;18.63;;;;;;;13.79;59.28;101173.03;5054880;28;20201;-68
2023/01/01 08:37:38;;;;;;;26.77;19.60;;;;;;;13.75;59.45;101165.53;5055171;28;20205;-68
2023/01/01 08:40:06;;;;;;;36.77;21.53;;;;;;;13.61;60.58;101167.16;5055123;28;20624;-68
2023/01/01 08:42:33;;;;;;;23.67;19.17;;;;;;;13.47;62.71;101162.53;5054168;28;20203;-67
2023/01/01 08:44:59;;;;;;;24.97;19.80;;;;;;;13.54;62.27;101166.16;5067185;28;20269;-68
2023/01/01 08:47:27;;;;;;;21.23;18.70;;;;;;;13.58;61.48;101159.47;5054555;28;20199;-67
2023/01/01 08:49:53;;;;;;;19.50;16.90;;;;;;;13.64;60.85;101148.09;5054339;28;20196;-66
2023/01/01 08:52:21;;;;;;;24.07;16.80;;;;;;;13.67;60.31;101155.75;5053650;28;20660;-66
2023/01/01 08:54:49;;;;;;;23.57;18.70;;;;;;;13.65;60.47;101149.78;5052938;28;20200;-68
2023/01/01 08:57:16;;;;;;;22.53;18.43;;;;;;;13.70;59.85;101155.41;5052170;28;20653;-67
2023/01/01 08:59:43;;;;;;;21.23;18.17;;;;;;;13.65;60.37;101152.44;5054387;28;20192;-67
2023/01/01 09:02:10;;;;;;;20.50;17.33;;;;;;;13.78;58.76;101149.19;5054483;28;20238;-68
2023/01/01 09:04:37;;;;;;;22.23;17.77;;;;;;;13.89;60.28;101146.13;5054939;28;20228;-68
2023/01/01 09:07:04;;;;;;;24.23;18.80;;;;;;;14.13;58.35;101144.09;5053945;28;20242;-67
2023/01/01 09:09:30;;;;;;;27.10;19.33;;;;;;;14.26;59.27;101135.50;5053254;28;20664;-66
2023/01/01 09:12:04;;;;;;;22.43;19.03;;;;;;;14.16;58.57;101127.69;5049274;28;20251;-66
2023/01/01 09:14:31;;;;;;;29.97;20.00;;;;;;;14.29;58.35;101125.28;5049619;28;20196;-66
2023/01/01 09:16:58;;;;;;;24.63;19.27;;;;;;;14.44;57.83;101126.16;5053924;28;20254;-67
2023/01/01 09:19:25;;;;;;;25.67;19.10;;;;;;;14.41;57.46;101120.31;5054133;28;20195;-68
2023/01/01 09:21:52;;;;;;;25.67;19.33;;;;;;;14.60;58.11;101120.66;5053664;28;21865;-67
2023/01/01 09:24:19;;;;;;;27.20;20.60;;;;;;;14.82;55.78;101114.41;5054221;28;20189;-67
2023/01/01 09:26:46;;;;;;;23.93;20.30;;;;;;;15.05;54.87;101101.75;5053926;28;20253;-67
2023/01/01 09:29:17;;;;;;;27.63;21.40;;;;;;;15.21;55.35;101101.56;5053777;28;20242;-67
2023/01/01 09:31:44;;;;;;;29.43;20.23;;;;;;;15.41;54.33;101093.81;5053485;28;20189;-67
2023/01/01 09:34:11;;;;;;;25.93;19.90;;;;;;;15.65;53.47;101102.31;5053935;28;20648;-69
2023/01/01 09:36:38;;;;;;;22.97;18.57;;;;;;;15.82;52.15;101098.38;5053556;28;20258;-69
2023/01/01 09:39:05;;;;;;;27.97;18.80;;;;;;;15.93;51.25;101095.19;5053450;28;20733;-69
2023/01/01 09:41:46;;;;;;;30.43;19.63;;;;;;;16.12;51.14;101090.22;5053238;28;20204;-69
2023/01/01 09:44:29;;;;;;;21.47;17.93;;;;;;;16.30;49.88;101079.84;5053402;28;20242;-69
2023/01/01 09:47:00;;;;;;;22.17;17.57;;;;;;;16.38;48.42;101083.22;5051893;28;20193;-68
2023/01/01 09:49:34;;;;;;;19.50;17.00;;;;;;;16.26;50.02;101070.53;5054068;28;20254;-70
2023/01/01 09:52:04;;;;;;;21.43;16.77;;;;;;;16.43;49.16;101080.81;5053532;28;20218;-69
2023/01/01 09:54:33;;;;;;;20.83;17.30;;;;;;;16.31;49.86;101068.09;5052894;28;20196;-69
2023/01/01 09:57:03;;;;;;;21.20;16.63;;;;;;;16.46;49.52;101066.97;5053432;28;20192;-72
2023/01/01 09:59:32;;;;;;;26.53;18.03;;;;;;;16.64;49.76;101077.22;5053428;28;20189;-69
2023/01/01 10:02:07;;;;;;;22.00;18.20;;;;;;;16.83;49.44;101072.00;5053531;28;20254;-69
2023/01/01 10:04:48;;;;;;;22.70;18.10;;;;;;;16.97;49.46;101068.34;5053098;28;20187;-70
2023/01/01 10:07:23;;;;;;;25.27;19.13;;;;;;;17.14;48.97;101068.81;5053276;28;20238;-70
2023/01/01 10:09:59;;;;;;;22.50;18.97;;;;;;;17.32;47.80;101067.25;5052286;28;20726;-72
2023/01/01 10:12:33;;;;;;;24.00;19.23;;;;;;;17.45;47.27;101061.13;5052114;28;20191;-73
2023/01/01 10:15:10;;;;;;;23.53;20.03;;;;;;;17.51;48.10;101057.66;5052990;28;20193;-73
2023/01/01 10:17:42;;;;;;;25.67;19.30;;;;;;;17.53;45.87;101039.44;5053461;28;20246;-72
2023/01/01 10:20:18;;;;;;;23.83;18.13;;;;;;;17.75;46.05;101062.44;5053183;28;20196;-74
2023/01/01 10:22:49;;;;;;;23.53;17.57;;;;;;;17.84;45.17;101050.47;5053703;28;20611;-74
2023/01/01 10:25:19;;;;;;;20.97;18.63;;;;;;;17.90;45.11;101044.28;5052680;28;20208;-71
2023/01/01 10:27:49;;;;;;;25.37;19.10;;;;;;;17.85;45.01;101047.56;5052706;28;20246;-71
2023/01/01 10:30:19;;;;;;;28.23;18.73;;;;;;;17.86;46.14;101043.88;5052378;28;20705;-74
2023/01/01 10:32:47;;;;;;;20.13;17.83;;;;;;;17.86;45.11;101043.88;5053333;28;20197;-72
2023/01/01 10:35:17;;;;;;;21.87;14.83;;;;;;;17.87;45.98;101026.69;5052391;28;20668;-72
2023/01/01 10:37:44;;;;;;;18.87;16.73;;;;;;;17.85;44.97;101042.19;5052326;28;20606;-73
2023/01/01 10:40:16;;;;;;;25.67;16.63;;;;;;;17.77;44.93;101020.06;5052704;28;20193;-72
2023/01/01 10:42:47;;;;;;;22.73;16.93;;;;;;;17.78;45.44;101040.53;5052335;28;20705;-72
2023/01/01 10:45:15;;;;;;;20.70;17.93;;;;;;;17.75;45.15;101035.56;5052326;28;20663;-69
2023/01/01 10:48:11;;;;;;;18.97;16.30;;;;;;;17.75;44.77;101030.19;5052339;28;20201;-72
2023/01/01 10:50:43;;;;;;;17.50;15.70;;;;;;;17.36;46.07;101019.34;5052342;28;20195;-71
2023/01/01 10:53:21;;;;;;;19.37;15.37;;;;;;;17.40;45.65;101015.22;5053251;28;20188;-71
2023/01/01 10:55:50;;;;;;;16.00;14.30;;;;;;;17.53;45.69;101017.97;5052565;28;20256;-71
2023/01/01 10:58:27;;;;;;;17.10;14.83;;;;;;;17.55;45.17;101007.81;5051366;28;20617;-76
2023/01/01 11:01:01;;;;;;;17.10;14.53;;;;;;;17.61;45.75;101015.09;5052332;28;20287;-72
2023/01/01 11:03:30;;;;;;;19.97;15.63;;;;;;;17.54;45.77;101008.84;5052842;28;20246;-72
2023/01/01 11:06:02;;;;;;;19.50;16.37;;;;;;;17.43;46.00;101004.91;5050587;28;20220;-74
2023/01/01 11:08:30;;;;;;;22.70;17.00;;;;;;;17.53;46.10;101004.53;5058805;28;20220;-74
2023/01/01 11:11:01;;;;;;;23.40;14.30;;;;;;;17.63;45.81;101013.00;5064236;28;20548;-75
2023/01/01 11:13:29;;;;;;;13.63;12.20;;;;;;;17.69;45.59;101004.97;5051763;28;20212;-73
2023/01/01 11:15:56;;;;;;;13.80;12.43;;;;;;;17.80;44.73;100992.78;5059315;28;20210;-70
2023/01/01 11:18:27;;;;;;;13.80;12.50;;;;;;;17.90;44.65;100990.50;5049706;28;20196;-72
2023/01/01 11:20:57;;;;;;;14.27;12.07;;;;;;;17.99;44.29;100994.63;5049718;28;20183;-74
2023/01/01 11:23:32;;;;;;;14.53;11.90;;;;;;;17.94;44.32;100983.66;5058771;28;20227;-72
2023/01/01 11:26:02;;;;;;;16.23;13.43;;;;;;;17.97;44.59;100991.34;5065070;28;20214;-74
2023/01/01 11:28:30;;;;;;;14.87;12.90;;;;;;;17.84;44.72;100986.78;5051420;28;20734;-74